sensor_id;sensor_type;location;lat;lon;timestamp;P1;durP1;ratioP1;P2;durP2;ratioP2
1577;SDS011;57623;53.608;10.004;2022-11-20T00:01:26;4.80;;;3.97;;
1577;SDS011;57623;53.608;10.004;2022-11-20T00:04:18;5.80;;;5.10;;
1577;SDS011;57623;53.608;10.004;2022-11-20T00:07:12;5.73;;;4.40;;
1577;SDS011;57623;53.608;10.004;2022-11-20T00:10:01;5.03;;;4.10;;
1577;SDS011;57623;53.608;10.004;2022-11-20T00:12:51;4.90;;;4.40;;
1577;SDS011;57623;53.608;10.004;2022-11-20T00:15:42;4.70;;;4.23;;
1577;SDS011;57623;53.608;10.004;2022-11-20T00:18:31;4.67;;;4.27;;
1577;SDS011;57623;53.608;10.004;2022-11-20T00:21:21;4.43;;;4.00;;
1577;SDS011;57623;53.608;10.004;2022-11-20T00:24:09;4.80;;;4.40;;
1577;SDS011;57623;53.608;10.004;2022-11-20T00:27:03;4.30;;;3.90;;
1577;SDS011;57623;53.608;10.004;2022-11-20T00:29:57;4.83;;;4.33;;
1577;SDS011;57623;53.608;10.004;2022-11-20T00:32:48;5.13;;;4.60;;
1577;SDS011;57623;53.608;10.004;2022-11-20T00:35:41;5.10;;;4.60;;
1577;SDS011;57623;53.608;10.004;2022-11-20T00:38:32;4.77;;;4.27;;
1577;SDS011;57623;53.608;10.004;2022-11-20T00:41:29;4.33;;;3.93;;
1577;SDS011;57623;53.608;10.004;2022-11-20T00:44:20;5.60;;;4.97;;
1577;SDS011;57623;53.608;10.004;2022-11-20T00:47:12;5.50;;;4.90;;
1577;SDS011;57623;53.608;10.004;2022-11-20T00:50:02;4.70;;;3.97;;
1577;SDS011;57623;53.608;10.004;2022-11-20T00:53:01;4.13;;;3.60;;
1577;SDS011;57623;53.608;10.004;2022-11-20T00:55:54;4.57;;;4.17;;
1577;SDS011;57623;53.608;10.004;2022-11-20T00:58:47;4.33;;;3.93;;
1577;SDS011;57623;53.608;10.004;2022-11-20T01:01:36;5.47;;;3.73;;
1577;SDS011;57623;53.608;10.004;2022-11-20T01:04:29;4.10;;;3.70;;
1577;SDS011;57623;53.608;10.004;2022-11-20T01:07:22;3.73;;;3.43;;
1577;SDS011;57623;53.608;10.004;2022-11-20T01:10:13;4.30;;;3.80;;
1577;SDS011;57623;53.608;10.004;2022-11-20T01:13:05;4.40;;;4.00;;
1577;SDS011;57623;53.608;10.004;2022-11-20T01:16:16;4.40;;;4.00;;
1577;SDS011;57623;53.608;10.004;2022-11-20T01:19:11;6.53;;;4.50;;
1577;SDS011;57623;53.608;10.004;2022-11-20T01:22:05;5.80;;;4.10;;
1577;SDS011;57623;53.608;10.004;2022-11-20T01:24:53;5.47;;;4.53;;
1577;SDS011;57623;53.608;10.004;2022-11-20T01:27:45;5.03;;;4.53;;
1577;SDS011;57623;53.608;10.004;2022-11-20T01:30:34;4.90;;;4.40;;
1577;SDS011;57623;53.608;10.004;2022-11-20T01:33:25;5.47;;;4.47;;
1577;SDS011;57623;53.608;10.004;2022-11-20T01:36:15;5.43;;;4.50;;
1577;SDS011;57623;53.608;10.004;2022-11-20T01:39:06;4.20;;;3.80;;
1577;SDS011;57623;53.608;10.004;2022-11-20T01:42:03;5.33;;;4.10;;
1577;SDS011;57623;53.608;10.004;2022-11-20T01:48:21;8.60;;;4.33;;
1577;SDS011;57623;53.608;10.004;2022-11-20T01:51:15;5.20;;;4.10;;
1577;SDS011;57623;53.608;10.004;2022-11-20T01:54:11;6.63;;;3.90;;
1577;SDS011;57623;53.608;10.004;2022-11-20T01:57:00;6.00;;;4.10;;
1577;SDS011;57623;53.608;10.004;2022-11-20T02:00:00;5.67;;;5.07;;
1577;SDS011;57623;53.608;10.004;2022-11-20T02:02:55;5.53;;;5.03;;
1577;SDS011;57623;53.608;10.004;2022-11-20T02:06:02;5.00;;;4.30;;
1577;SDS011;57623;53.608;10.004;2022-11-20T02:08:55;5.90;;;4.60;;
1577;SDS011;57623;53.608;10.004;2022-11-20T02:11:45;6.27;;;4.80;;
1577;SDS011;57623;53.608;10.004;2022-11-20T02:14:38;5.07;;;4.53;;
1577;SDS011;57623;53.608;10.004;2022-11-20T02:17:27;4.50;;;4.10;;
1577;SDS011;57623;53.608;10.004;2022-11-20T02:20:30;5.37;;;4.87;;
1577;SDS011;57623;53.608;10.004;2022-11-20T02:23:19;5.27;;;4.77;;
1577;SDS011;57623;53.608;10.004;2022-11-20T02:26:22;5.50;;;5.00;;
1577;SDS011;57623;53.608;10.004;2022-11-20T02:29:16;4.90;;;4.40;;
1577;SDS011;57623;53.608;10.004;2022-11-20T02:32:17;5.97;;;5.37;;
1577;SDS011;57623;53.608;10.004;2022-11-20T02:35:09;5.40;;;4.90;;
1577;SDS011;57623;53.608;10.004;2022-11-20T02:38:03;5.27;;;4.77;;
1577;SDS011;57623;53.608;10.004;2022-11-20T02:40:52;5.80;;;4.50;;
1577;SDS011;57623;53.608;10.004;2022-11-20T02:43:51;5.80;;;4.60;;
1577;SDS011;57623;53.608;10.004;2022-11-20T02:46:42;6.17;;;5.00;;
1577;SDS011;57623;53.608;10.004;2022-11-20T02:53:23;4.73;;;4.30;;
1577;SDS011;57623;53.608;10.004;2022-11-20T02:56:18;5.83;;;5.17;;
1577;SDS011;57623;53.608;10.004;2022-11-20T02:59:13;5.17;;;4.70;;
1577;SDS011;57623;53.608;10.004;2022-11-20T03:02:05;5.57;;;5.07;;
1577;SDS011;57623;53.608;10.004;2022-11-20T03:04:54;5.67;;;5.17;;
1577;SDS011;57623;53.608;10.004;2022-11-20T03:07:44;5.70;;;5.20;;
1577;SDS011;57623;53.608;10.004;2022-11-20T03:10:33;5.83;;;5.23;;
1577;SDS011;57623;53.608;10.004;2022-11-20T03:13:30;5.30;;;4.60;;
1577;SDS011;57623;53.608;10.004;2022-11-20T03:16:21;5.57;;;4.80;;
1577;SDS011;57623;53.608;10.004;2022-11-20T03:19:10;4.70;;;4.27;;
1577;SDS011;57623;53.608;10.004;2022-11-20T03:22:00;5.07;;;4.60;;
1577;SDS011;57623;53.608;10.004;2022-11-20T03:24:54;5.60;;;4.40;;
1577;SDS011;57623;53.608;10.004;2022-11-20T03:27:45;4.80;;;4.30;;
1577;SDS011;57623;53.608;10.004;2022-11-20T03:30:36;5.00;;;4.60;;
1577;SDS011;57623;53.608;10.004;2022-11-20T03:33:29;4.80;;;4.40;;
1577;SDS011;57623;53.608;10.004;2022-11-20T03:36:20;4.73;;;4.00;;
1577;SDS011;57623;53.608;10.004;2022-11-20T03:39:13;5.10;;;4.60;;
1577;SDS011;57623;53.608;10.004;2022-11-20T03:42:05;4.90;;;4.43;;
1577;SDS011;57623;53.608;10.004;2022-11-20T03:45:17;4.33;;;3.93;;
1577;SDS011;57623;53.608;10.004;2022-11-20T03:48:08;4.83;;;4.43;;
1577;SDS011;57623;53.608;10.004;2022-11-20T03:51:11;5.03;;;4.60;;
1577;SDS011;57623;53.608;10.004;2022-11-20T03:54:06;4.47;;;4.00;;
1577;SDS011;57623;53.608;10.004;2022-11-20T03:56:54;5.40;;;4.90;;
1577;SDS011;57623;53.608;10.004;2022-11-20T03:59:43;4.60;;;4.20;;
1577;SDS011;57623;53.608;10.004;2022-11-20T04:02:32;6.03;;;5.07;;
1577;SDS011;57623;53.608;10.004;2022-11-20T04:05:23;5.30;;;4.80;;
1577;SDS011;57623;53.608;10.004;2022-11-20T04:08:13;4.47;;;4.07;;
1577;SDS011;57623;53.608;10.004;2022-11-20T04:11:10;4.77;;;4.37;;
1577;SDS011;57623;53.608;10.004;2022-11-20T04:14:00;5.73;;;5.10;;
1577;SDS011;57623;53.608;10.004;2022-11-20T04:16:50;5.43;;;4.93;;
1577;SDS011;57623;53.608;10.004;2022-11-20T04:19:43;4.60;;;4.20;;
1577;SDS011;57623;53.608;10.004;2022-11-20T04:22:35;5.70;;;4.30;;
1577;SDS011;57623;53.608;10.004;2022-11-20T04:25:27;4.73;;;4.33;;
1577;SDS011;57623;53.608;10.004;2022-11-20T04:28:21;4.80;;;4.23;;
1577;SDS011;57623;53.608;10.004;2022-11-20T04:31:12;5.70;;;5.20;;
1577;SDS011;57623;53.608;10.004;2022-11-20T04:34:06;5.30;;;4.70;;
1577;SDS011;57623;53.608;10.004;2022-11-20T04:36:58;5.33;;;4.93;;
1577;SDS011;57623;53.608;10.004;2022-11-20T04:39:46;5.97;;;5.37;;
1577;SDS011;57623;53.608;10.004;2022-11-20T04:42:40;5.20;;;4.77;;
1577;SDS011;57623;53.608;10.004;2022-11-20T04:45:28;5.50;;;4.90;;
1577;SDS011;57623;53.608;10.004;2022-11-20T04:48:24;5.70;;;5.20;;
1577;SDS011;57623;53.608;10.004;2022-11-20T04:51:13;5.50;;;5.00;;
1577;SDS011;57623;53.608;10.004;2022-11-20T04:54:07;6.33;;;4.43;;
1577;SDS011;57623;53.608;10.004;2022-11-20T04:57:01;5.63;;;5.03;;
1577;SDS011;57623;53.608;10.004;2022-11-20T05:00:01;5.27;;;4.87;;
1577;SDS011;57623;53.608;10.004;2022-11-20T05:02:51;5.43;;;4.93;;
1577;SDS011;57623;53.608;10.004;2022-11-20T05:05:42;5.97;;;5.53;;
1577;SDS011;57623;53.608;10.004;2022-11-20T05:08:31;5.17;;;4.73;;
1577;SDS011;57623;53.608;10.004;2022-11-20T05:11:21;5.00;;;4.60;;
1577;SDS011;57623;53.608;10.004;2022-11-20T05:14:10;6.30;;;5.70;;
1577;SDS011;57623;53.608;10.004;2022-11-20T05:17:03;5.60;;;5.00;;
1577;SDS011;57623;53.608;10.004;2022-11-20T05:19:59;7.67;;;5.40;;
1577;SDS011;57623;53.608;10.004;2022-11-20T05:22:48;5.87;;;5.37;;
1577;SDS011;57623;53.608;10.004;2022-11-20T05:25:39;6.50;;;5.83;;
1577;SDS011;57623;53.608;10.004;2022-11-20T05:28:31;5.43;;;4.90;;
1577;SDS011;57623;53.608;10.004;2022-11-20T05:31:23;5.83;;;5.33;;
1577;SDS011;57623;53.608;10.004;2022-11-20T05:34:16;5.23;;;4.83;;
1577;SDS011;57623;53.608;10.004;2022-11-20T05:37:09;6.37;;;5.87;;
1577;SDS011;57623;53.608;10.004;2022-11-20T05:39:58;5.80;;;5.20;;
1577;SDS011;57623;53.608;10.004;2022-11-20T05:42:54;5.40;;;4.90;;
1577;SDS011;57623;53.608;10.004;2022-11-20T05:45:50;5.50;;;5.00;;
1577;SDS011;57623;53.608;10.004;2022-11-20T05:48:41;5.97;;;5.47;;
1577;SDS011;57623;53.608;10.004;2022-11-20T05:51:34;6.43;;;5.03;;
1577;SDS011;57623;53.608;10.004;2022-11-20T05:54:25;6.50;;;6.00;;
1577;SDS011;57623;53.608;10.004;2022-11-20T05:57:13;7.00;;;6.40;;
1577;SDS011;57623;53.608;10.004;2022-11-20T06:00:09;7.00;;;6.37;;
1577;SDS011;57623;53.608;10.004;2022-11-20T06:03:01;6.77;;;5.90;;
1577;SDS011;57623;53.608;10.004;2022-11-20T06:05:50;6.23;;;5.70;;
1577;SDS011;57623;53.608;10.004;2022-11-20T06:08:43;6.13;;;5.20;;
1577;SDS011;57623;53.608;10.004;2022-11-20T06:11:33;6.50;;;5.90;;
1577;SDS011;57623;53.608;10.004;2022-11-20T06:14:34;5.90;;;5.40;;
1577;SDS011;57623;53.608;10.004;2022-11-20T06:17:30;5.93;;;5.43;;
1577;SDS011;57623;53.608;10.004;2022-11-20T06:20:20;6.50;;;5.90;;
1577;SDS011;57623;53.608;10.004;2022-11-20T06:23:28;6.93;;;6.27;;
1577;SDS011;57623;53.608;10.004;2022-11-20T06:26:19;7.40;;;6.70;;
1577;SDS011;57623;53.608;10.004;2022-11-20T06:29:08;7.20;;;6.40;;
1577;SDS011;57623;53.608;10.004;2022-11-20T06:31:57;7.10;;;6.40;;
1577;SDS011;57623;53.608;10.004;2022-11-20T06:34:45;8.17;;;7.37;;
1577;SDS011;57623;53.608;10.004;2022-11-20T06:37:34;7.50;;;6.70;;
1577;SDS011;57623;53.608;10.004;2022-11-20T06:40:22;7.60;;;6.90;;
1577;SDS011;57623;53.608;10.004;2022-11-20T06:43:12;7.70;;;6.27;;
1577;SDS011;57623;53.608;10.004;2022-11-20T06:46:01;7.83;;;7.10;;
1577;SDS011;57623;53.608;10.004;2022-11-20T06:48:50;8.57;;;7.70;;
1577;SDS011;57623;53.608;10.004;2022-11-20T06:51:38;8.17;;;7.37;;
1577;SDS011;57623;53.608;10.004;2022-11-20T06:54:27;9.00;;;8.10;;
1577;SDS011;57623;53.608;10.004;2022-11-20T06:57:15;8.70;;;7.87;;
1577;SDS011;57623;53.608;10.004;2022-11-20T07:00:09;7.37;;;6.70;;
1577;SDS011;57623;53.608;10.004;2022-11-20T07:02:58;7.37;;;6.67;;
1577;SDS011;57623;53.608;10.004;2022-11-20T07:05:46;8.20;;;7.40;;
1577;SDS011;57623;53.608;10.004;2022-11-20T07:08:35;7.47;;;6.80;;
1577;SDS011;57623;53.608;10.004;2022-11-20T07:11:24;7.80;;;6.97;;
1577;SDS011;57623;53.608;10.004;2022-11-20T07:14:15;7.33;;;6.67;;
1577;SDS011;57623;53.608;10.004;2022-11-20T07:17:05;7.73;;;6.97;;
1577;SDS011;57623;53.608;10.004;2022-11-20T07:19:53;8.27;;;7.47;;
1577;SDS011;57623;53.608;10.004;2022-11-20T07:22:42;8.17;;;7.33;;
1577;SDS011;57623;53.608;10.004;2022-11-20T07:25:33;8.00;;;7.20;;
1577;SDS011;57623;53.608;10.004;2022-11-20T07:28:22;7.90;;;6.83;;
1577;SDS011;57623;53.608;10.004;2022-11-20T07:31:11;8.67;;;6.67;;
1577;SDS011;57623;53.608;10.004;2022-11-20T07:34:06;7.60;;;6.90;;
1577;SDS011;57623;53.608;10.004;2022-11-20T07:36:55;7.03;;;6.40;;
1577;SDS011;57623;53.608;10.004;2022-11-20T07:39:44;7.03;;;6.43;;
1577;SDS011;57623;53.608;10.004;2022-11-20T07:42:33;7.30;;;6.57;;
1577;SDS011;57623;53.608;10.004;2022-11-20T07:45:25;7.30;;;6.00;;
1577;SDS011;57623;53.608;10.004;2022-11-20T07:48:13;7.27;;;6.57;;
1577;SDS011;57623;53.608;10.004;2022-11-20T07:51:03;7.53;;;6.23;;
1577;SDS011;57623;53.608;10.004;2022-11-20T07:53:52;7.60;;;6.90;;
1577;SDS011;57623;53.608;10.004;2022-11-20T07:56:40;6.60;;;5.90;;
1577;SDS011;57623;53.608;10.004;2022-11-20T07:59:29;6.67;;;5.80;;
1577;SDS011;57623;53.608;10.004;2022-11-20T08:02:17;6.70;;;6.00;;
1577;SDS011;57623;53.608;10.004;2022-11-20T08:05:07;6.70;;;6.00;;
1577;SDS011;57623;53.608;10.004;2022-11-20T08:07:58;7.03;;;6.33;;
1577;SDS011;57623;53.608;10.004;2022-11-20T08:10:56;6.93;;;5.60;;
1577;SDS011;57623;53.608;10.004;2022-11-20T08:14:04;5.97;;;5.27;;
1577;SDS011;57623;53.608;10.004;2022-11-20T08:17:00;6.63;;;6.00;;
1577;SDS011;57623;53.608;10.004;2022-11-20T08:19:50;6.40;;;5.80;;
1577;SDS011;57623;53.608;10.004;2022-11-20T08:22:39;5.90;;;5.37;;
1577;SDS011;57623;53.608;10.004;2022-11-20T08:25:29;6.40;;;5.70;;
1577;SDS011;57623;53.608;10.004;2022-11-20T08:28:18;6.20;;;5.70;;
1577;SDS011;57623;53.608;10.004;2022-11-20T08:31:08;6.30;;;4.90;;
1577;SDS011;57623;53.608;10.004;2022-11-20T08:33:57;5.50;;;4.90;;
1577;SDS011;57623;53.608;10.004;2022-11-20T08:36:45;5.40;;;4.90;;
1577;SDS011;57623;53.608;10.004;2022-11-20T08:39:40;5.03;;;4.53;;
1577;SDS011;57623;53.608;10.004;2022-11-20T08:42:31;5.20;;;4.70;;
1577;SDS011;57623;53.608;10.004;2022-11-20T08:45:19;4.83;;;4.43;;
1577;SDS011;57623;53.608;10.004;2022-11-20T08:48:08;5.87;;;5.27;;
1577;SDS011;57623;53.608;10.004;2022-11-20T08:50:57;5.23;;;4.73;;
1577;SDS011;57623;53.608;10.004;2022-11-20T08:53:46;4.90;;;4.30;;
1577;SDS011;57623;53.608;10.004;2022-11-20T08:56:36;5.30;;;4.77;;
1577;SDS011;57623;53.608;10.004;2022-11-20T08:59:26;4.90;;;4.37;;
1577;SDS011;57623;53.608;10.004;2022-11-20T09:02:34;5.47;;;4.97;;
1577;SDS011;57623;53.608;10.004;2022-11-20T09:05:23;6.80;;;5.37;;
1577;SDS011;57623;53.608;10.004;2022-11-20T09:08:11;4.97;;;4.53;;
1577;SDS011;57623;53.608;10.004;2022-11-20T09:11:00;5.33;;;4.73;;
1577;SDS011;57623;53.608;10.004;2022-11-20T09:13:48;5.07;;;4.67;;
1577;SDS011;57623;53.608;10.004;2022-11-20T09:16:38;6.10;;;4.63;;
1577;SDS011;57623;53.608;10.004;2022-11-20T09:19:27;4.90;;;4.40;;
1577;SDS011;57623;53.608;10.004;2022-11-20T09:22:23;5.03;;;4.53;;
1577;SDS011;57623;53.608;10.004;2022-11-20T09:25:11;5.80;;;4.70;;
1577;SDS011;57623;53.608;10.004;2022-11-20T09:28:00;4.57;;;4.23;;
1577;SDS011;57623;53.608;10.004;2022-11-20T09:30:49;5.63;;;4.47;;
1577;SDS011;57623;53.608;10.004;2022-11-20T09:33:39;5.43;;;4.70;;
1577;SDS011;57623;53.608;10.004;2022-11-20T09:36:27;5.30;;;4.77;;
1577;SDS011;57623;53.608;10.004;2022-11-20T09:39:16;5.07;;;4.57;;
1577;SDS011;57623;53.608;10.004;2022-11-20T09:42:17;5.53;;;5.03;;
1577;SDS011;57623;53.608;10.004;2022-11-20T09:45:16;5.17;;;4.67;;
1577;SDS011;57623;53.608;10.004;2022-11-20T09:48:28;6.07;;;4.90;;
1577;SDS011;57623;53.608;10.004;2022-11-20T09:51:25;5.23;;;4.73;;
1577;SDS011;57623;53.608;10.004;2022-11-20T09:54:17;5.80;;;5.20;;
1577;SDS011;57623;53.608;10.004;2022-11-20T09:57:08;5.20;;;4.63;;
1577;SDS011;57623;53.608;10.004;2022-11-20T09:59:59;5.40;;;4.90;;
1577;SDS011;57623;53.608;10.004;2022-11-20T10:02:50;5.83;;;4.43;;
1577;SDS011;57623;53.608;10.004;2022-11-20T10:05:41;6.03;;;5.43;;
1577;SDS011;57623;53.608;10.004;2022-11-20T10:08:33;6.47;;;5.00;;
1577;SDS011;57623;53.608;10.004;2022-11-20T10:11:25;5.37;;;4.67;;
1577;SDS011;57623;53.608;10.004;2022-11-20T10:14:21;5.00;;;4.50;;
1577;SDS011;57623;53.608;10.004;2022-11-20T10:17:15;4.53;;;4.10;;
1577;SDS011;57623;53.608;10.004;2022-11-20T10:20:12;5.53;;;4.90;;
1577;SDS011;57623;53.608;10.004;2022-11-20T10:23:08;5.13;;;4.73;;
1577;SDS011;57623;53.608;10.004;2022-11-20T10:26:16;6.93;;;5.53;;
1577;SDS011;57623;53.608;10.004;2022-11-20T10:29:10;6.03;;;4.97;;
1577;SDS011;57623;53.608;10.004;2022-11-20T10:32:01;4.43;;;3.97;;
1577;SDS011;57623;53.608;10.004;2022-11-20T10:34:50;5.10;;;4.57;;
1577;SDS011;57623;53.608;10.004;2022-11-20T10:37:41;5.30;;;4.80;;
1577;SDS011;57623;53.608;10.004;2022-11-20T10:40:32;5.00;;;4.50;;
1577;SDS011;57623;53.608;10.004;2022-11-20T10:43:26;5.50;;;4.70;;
1577;SDS011;57623;53.608;10.004;2022-11-20T10:46:17;5.00;;;4.50;;
1577;SDS011;57623;53.608;10.004;2022-11-20T10:49:10;5.10;;;4.60;;
1577;SDS011;57623;53.608;10.004;2022-11-20T10:52:02;5.23;;;4.73;;
1577;SDS011;57623;53.608;10.004;2022-11-20T10:54:54;4.60;;;4.20;;
1577;SDS011;57623;53.608;10.004;2022-11-20T10:57:48;4.50;;;4.10;;
1577;SDS011;57623;53.608;10.004;2022-11-20T11:00:42;5.10;;;4.60;;
1577;SDS011;57623;53.608;10.004;2022-11-20T11:03:31;3.90;;;3.60;;
1577;SDS011;57623;53.608;10.004;2022-11-20T11:06:21;4.57;;;4.17;;
1577;SDS011;57623;53.608;10.004;2022-11-20T11:09:13;5.47;;;4.93;;
1577;SDS011;57623;53.608;10.004;2022-11-20T11:12:05;4.47;;;4.07;;
1577;SDS011;57623;53.608;10.004;2022-11-20T11:14:56;4.40;;;4.00;;
1577;SDS011;57623;53.608;10.004;2022-11-20T11:17:47;4.33;;;3.93;;
1577;SDS011;57623;53.608;10.004;2022-11-20T11:20:35;4.67;;;4.27;;
1577;SDS011;57623;53.608;10.004;2022-11-20T11:23:28;4.10;;;3.77;;
1577;SDS011;57623;53.608;10.004;2022-11-20T11:26:20;5.53;;;3.90;;
1577;SDS011;57623;53.608;10.004;2022-11-20T11:29:15;4.20;;;3.90;;
1577;SDS011;57623;53.608;10.004;2022-11-20T11:32:11;3.53;;;3.23;;
1577;SDS011;57623;53.608;10.004;2022-11-20T11:35:03;4.07;;;3.73;;
1577;SDS011;57623;53.608;10.004;2022-11-20T11:37:53;4.00;;;3.60;;
1577;SDS011;57623;53.608;10.004;2022-11-20T11:40:42;4.43;;;4.03;;
1577;SDS011;57623;53.608;10.004;2022-11-20T11:43:33;4.60;;;3.33;;
1577;SDS011;57623;53.608;10.004;2022-11-20T11:46:40;3.40;;;3.10;;
1577;SDS011;57623;53.608;10.004;2022-11-20T11:49:32;4.17;;;3.77;;
1577;SDS011;57623;53.608;10.004;2022-11-20T11:52:25;3.20;;;2.90;;
1577;SDS011;57623;53.608;10.004;2022-11-20T11:55:16;3.90;;;3.47;;
1577;SDS011;57623;53.608;10.004;2022-11-20T11:58:15;3.70;;;3.30;;
1577;SDS011;57623;53.608;10.004;2022-11-20T12:01:09;3.63;;;3.33;;
1577;SDS011;57623;53.608;10.004;2022-11-20T12:04:02;3.60;;;3.30;;
1577;SDS011;57623;53.608;10.004;2022-11-20T12:06:56;3.67;;;3.37;;
1577;SDS011;57623;53.608;10.004;2022-11-20T12:10:06;3.80;;;3.30;;
1577;SDS011;57623;53.608;10.004;2022-11-20T12:13:01;3.80;;;3.50;;
1577;SDS011;57623;53.608;10.004;2022-11-20T12:15:54;3.43;;;3.13;;
1577;SDS011;57623;53.608;10.004;2022-11-20T12:18:43;3.60;;;3.30;;
1577;SDS011;57623;53.608;10.004;2022-11-20T12:21:33;4.37;;;3.97;;
1577;SDS011;57623;53.608;10.004;2022-11-20T12:27:47;4.23;;;3.90;;
1577;SDS011;57623;53.608;10.004;2022-11-20T12:30:47;3.90;;;3.60;;
1577;SDS011;57623;53.608;10.004;2022-11-20T12:33:48;3.60;;;3.30;;
1577;SDS011;57623;53.608;10.004;2022-11-20T12:40:27;3.40;;;3.10;;
1577;SDS011;57623;53.608;10.004;2022-11-20T12:43:20;3.30;;;3.10;;
1577;SDS011;57623;53.608;10.004;2022-11-20T12:46:28;3.47;;;3.20;;
1577;SDS011;57623;53.608;10.004;2022-11-20T12:49:21;3.27;;;2.97;;
1577;SDS011;57623;53.608;10.004;2022-11-20T12:52:15;3.97;;;3.67;;
1577;SDS011;57623;53.608;10.004;2022-11-20T12:55:14;3.00;;;2.80;;
1577;SDS011;57623;53.608;10.004;2022-11-20T12:58:15;3.10;;;2.90;;
1577;SDS011;57623;53.608;10.004;2022-11-20T13:01:11;3.20;;;2.90;;
1577;SDS011;57623;53.608;10.004;2022-11-20T13:07:32;3.40;;;3.10;;
1577;SDS011;57623;53.608;10.004;2022-11-20T13:10:25;4.10;;;3.67;;
1577;SDS011;57623;53.608;10.004;2022-11-20T13:13:16;3.40;;;3.10;;
1577;SDS011;57623;53.608;10.004;2022-11-20T13:16:08;3.37;;;3.07;;
1577;SDS011;57623;53.608;10.004;2022-11-20T13:19:05;3.50;;;3.20;;
1577;SDS011;57623;53.608;10.004;2022-11-20T13:21:57;3.83;;;3.50;;
1577;SDS011;57623;53.608;10.004;2022-11-20T13:24:50;3.60;;;3.30;;
1577;SDS011;57623;53.608;10.004;2022-11-20T13:27:46;3.13;;;2.93;;
1577;SDS011;57623;53.608;10.004;2022-11-20T13:30:35;3.43;;;3.20;;
1577;SDS011;57623;53.608;10.004;2022-11-20T13:33:29;3.37;;;3.17;;
1577;SDS011;57623;53.608;10.004;2022-11-20T13:36:22;3.90;;;3.60;;
1577;SDS011;57623;53.608;10.004;2022-11-20T13:39:12;5.50;;;5.10;;
1577;SDS011;57623;53.608;10.004;2022-11-20T13:42:20;5.30;;;4.80;;
1577;SDS011;57623;53.608;10.004;2022-11-20T13:45:21;3.93;;;3.63;;
1577;SDS011;57623;53.608;10.004;2022-11-20T13:48:19;3.50;;;3.20;;
1577;SDS011;57623;53.608;10.004;2022-11-20T13:51:15;3.73;;;3.43;;
1577;SDS011;57623;53.608;10.004;2022-11-20T13:54:26;3.73;;;3.43;;
1577;SDS011;57623;53.608;10.004;2022-11-20T13:57:27;4.40;;;4.00;;
1577;SDS011;57623;53.608;10.004;2022-11-20T14:00:23;4.63;;;4.20;;
1577;SDS011;57623;53.608;10.004;2022-11-20T14:03:17;5.50;;;5.00;;
1577;SDS011;57623;53.608;10.004;2022-11-20T14:06:31;14.10;;;12.73;;
1577;SDS011;57623;53.608;10.004;2022-11-20T14:09:27;8.10;;;7.30;;
1577;SDS011;57623;53.608;10.004;2022-11-20T14:12:17;7.37;;;6.70;;
1577;SDS011;57623;53.608;10.004;2022-11-20T14:18:19;5.03;;;4.53;;
1577;SDS011;57623;53.608;10.004;2022-11-20T14:21:09;4.00;;;3.63;;
1577;SDS011;57623;53.608;10.004;2022-11-20T14:24:04;3.23;;;3.03;;
1577;SDS011;57623;53.608;10.004;2022-11-20T14:26:57;3.43;;;3.13;;
1577;SDS011;57623;53.608;10.004;2022-11-20T14:29:48;3.77;;;3.47;;
1577;SDS011;57623;53.608;10.004;2022-11-20T14:32:40;3.80;;;2.97;;
1577;SDS011;57623;53.608;10.004;2022-11-20T14:35:30;2.93;;;2.73;;
1577;SDS011;57623;53.608;10.004;2022-11-20T14:38:23;3.20;;;3.00;;
1577;SDS011;57623;53.608;10.004;2022-11-20T14:41:16;3.23;;;3.03;;
1577;SDS011;57623;53.608;10.004;2022-11-20T14:44:06;3.43;;;3.20;;
1577;SDS011;57623;53.608;10.004;2022-11-20T14:46:59;3.53;;;3.23;;
1577;SDS011;57623;53.608;10.004;2022-11-20T14:49:48;3.73;;;3.27;;
1577;SDS011;57623;53.608;10.004;2022-11-20T14:52:37;3.63;;;3.33;;
1577;SDS011;57623;53.608;10.004;2022-11-20T14:55:28;5.77;;;3.23;;
1577;SDS011;57623;53.608;10.004;2022-11-20T14:58:20;3.30;;;3.00;;
1577;SDS011;57623;53.608;10.004;2022-11-20T15:01:13;3.60;;;3.30;;
1577;SDS011;57623;53.608;10.004;2022-11-20T15:04:06;3.70;;;3.40;;
1577;SDS011;57623;53.608;10.004;2022-11-20T15:06:56;4.03;;;3.73;;
1577;SDS011;57623;53.608;10.004;2022-11-20T15:09:45;4.03;;;3.70;;
1577;SDS011;57623;53.608;10.004;2022-11-20T15:12:34;4.10;;;3.80;;
1577;SDS011;57623;53.608;10.004;2022-11-20T15:15:25;4.10;;;3.70;;
1577;SDS011;57623;53.608;10.004;2022-11-20T15:18:19;5.47;;;3.80;;
1577;SDS011;57623;53.608;10.004;2022-11-20T15:21:09;4.47;;;4.07;;
1577;SDS011;57623;53.608;10.004;2022-11-20T15:23:58;4.30;;;4.00;;
1577;SDS011;57623;53.608;10.004;2022-11-20T15:26:47;5.33;;;4.83;;
1577;SDS011;57623;53.608;10.004;2022-11-20T15:29:38;5.80;;;5.30;;
1577;SDS011;57623;53.608;10.004;2022-11-20T15:32:27;5.07;;;4.67;;
1577;SDS011;57623;53.608;10.004;2022-11-20T15:35:17;7.00;;;5.53;;
1577;SDS011;57623;53.608;10.004;2022-11-20T15:38:05;5.80;;;5.30;;
1577;SDS011;57623;53.608;10.004;2022-11-20T15:40:54;5.80;;;5.23;;
1577;SDS011;57623;53.608;10.004;2022-11-20T15:43:43;6.13;;;5.50;;
1577;SDS011;57623;53.608;10.004;2022-11-20T15:46:38;5.67;;;5.07;;
1577;SDS011;57623;53.608;10.004;2022-11-20T15:49:28;5.50;;;5.00;;
1577;SDS011;57623;53.608;10.004;2022-11-20T15:52:18;4.80;;;4.40;;
1577;SDS011;57623;53.608;10.004;2022-11-20T15:55:08;5.40;;;5.00;;
1577;SDS011;57623;53.608;10.004;2022-11-20T15:58:09;5.87;;;5.13;;
1577;SDS011;57623;53.608;10.004;2022-11-20T16:00:57;5.07;;;4.67;;
1577;SDS011;57623;53.608;10.004;2022-11-20T16:03:48;6.03;;;5.43;;
1577;SDS011;57623;53.608;10.004;2022-11-20T16:06:37;6.47;;;5.87;;
1577;SDS011;57623;53.608;10.004;2022-11-20T16:09:30;6.40;;;5.80;;
1577;SDS011;57623;53.608;10.004;2022-11-20T16:12:19;6.63;;;6.03;;
1577;SDS011;57623;53.608;10.004;2022-11-20T16:15:21;7.17;;;6.57;;
1577;SDS011;57623;53.608;10.004;2022-11-20T16:18:27;7.67;;;7.07;;
1577;SDS011;57623;53.608;10.004;2022-11-20T16:21:16;7.77;;;6.97;;
1577;SDS011;57623;53.608;10.004;2022-11-20T16:24:08;8.10;;;7.40;;
1577;SDS011;57623;53.608;10.004;2022-11-20T16:27:00;8.03;;;7.23;;
1577;SDS011;57623;53.608;10.004;2022-11-20T16:29:49;6.90;;;6.30;;
1577;SDS011;57623;53.608;10.004;2022-11-20T16:32:41;8.47;;;7.60;;
1577;SDS011;57623;53.608;10.004;2022-11-20T16:35:29;8.30;;;7.60;;
1577;SDS011;57623;53.608;10.004;2022-11-20T16:38:18;10.10;;;9.20;;
1577;SDS011;57623;53.608;10.004;2022-11-20T16:41:08;9.60;;;8.50;;
1577;SDS011;57623;53.608;10.004;2022-11-20T16:44:02;8.80;;;7.90;;
1577;SDS011;57623;53.608;10.004;2022-11-20T16:46:54;9.13;;;7.77;;
1577;SDS011;57623;53.608;10.004;2022-11-20T16:49:45;8.40;;;7.60;;
1577;SDS011;57623;53.608;10.004;2022-11-20T16:52:34;7.80;;;7.10;;
1577;SDS011;57623;53.608;10.004;2022-11-20T16:55:24;8.53;;;7.73;;
1577;SDS011;57623;53.608;10.004;2022-11-20T16:58:12;9.60;;;7.87;;
1577;SDS011;57623;53.608;10.004;2022-11-20T17:01:05;8.07;;;7.27;;
1577;SDS011;57623;53.608;10.004;2022-11-20T17:03:56;8.70;;;7.90;;
1577;SDS011;57623;53.608;10.004;2022-11-20T17:06:45;12.87;;;9.70;;
1577;SDS011;57623;53.608;10.004;2022-11-20T17:09:34;11.07;;;10.07;;
1577;SDS011;57623;53.608;10.004;2022-11-20T17:12:24;12.27;;;11.07;;
1577;SDS011;57623;53.608;10.004;2022-11-20T17:15:17;10.53;;;9.53;;
1577;SDS011;57623;53.608;10.004;2022-11-20T17:18:09;11.23;;;10.13;;
1577;SDS011;57623;53.608;10.004;2022-11-20T17:20:58;10.67;;;9.57;;
1577;SDS011;57623;53.608;10.004;2022-11-20T17:23:50;11.10;;;10.10;;
1577;SDS011;57623;53.608;10.004;2022-11-20T17:26:41;11.27;;;10.20;;
1577;SDS011;57623;53.608;10.004;2022-11-20T17:29:32;11.00;;;10.00;;
1577;SDS011;57623;53.608;10.004;2022-11-20T17:32:27;12.00;;;10.80;;
1577;SDS011;57623;53.608;10.004;2022-11-20T17:35:17;11.43;;;10.03;;
1577;SDS011;57623;53.608;10.004;2022-11-20T17:38:10;11.40;;;10.20;;